Time;durP1;ratioP1;P1;durP2;ratioP2;P2;SDS_P1;SDS_P2;PMS_P1;PMS_P2;Temp;Humidity;BMP_temperature;BMP_pressure;BME280_temperature;BME280_humidity;BME280_pressure;Samples;Min_cycle;Max_cycle;Signal;HPM_P1;HPM_P2
2022/10/20 00:00:53;;;;;;;15.35;10.25;;;;;;;;;;5047471;28;20056;-70
2022/10/20 00:03:19;;;;;;;21.35;10.93;;;;;;;;;;5030944;28;20079;-69
2022/10/20 00:05:45;;;;;;;14.48;10.82;;;;;;;;;;5047278;28;20111;-69
2022/10/20 00:08:11;;;;;;;16.77;10.77;;;;;;;;;;5048237;28;20390;-69
2022/10/20 00:10:37;;;;;;;19.23;11.40;;;;;;;;;;5049673;28;20045;-69
2022/10/20 00:13:03;;;;;;;19.67;11.82;;;;;;;;;;5029701;28;20090;-69
2022/10/20 00:15:29;;;;;;;17.85;11.00;;;;;;;;;;5049359;28;20387;-69
2022/10/20 00:17:55;;;;;;;18.65;11.45;;;;;;;;;;5028754;28;20147;-69
2022/10/20 00:20:21;;;;;;;19.45;11.27;;;;;;;;;;5048355;28;20460;-69
2022/10/20 00:22:47;;;;;;;22.65;11.70;;;;;;;;;;5052265;28;20021;-69
2022/10/20 00:25:13;;;;;;;23.38;11.15;;;;;;;;;;5049221;28;20038;-69
2022/10/20 00:27:39;;;;;;;20.38;11.00;;;;;;;;;;5048025;28;20807;-69
2022/10/20 00:30:05;;;;;;;20.45;11.95;;;;;;;;;;5046844;28;20040;-69
2022/10/20 00:32:31;;;;;;;19.38;11.20;;;;;;;;;;5037398;28;20017;-69
2022/10/20 00:34:58;;;;;;;18.73;11.10;;;;;;;;;;5029513;28;20110;-69
2022/10/20 00:37:24;;;;;;;18.98;11.50;;;;;;;;;;5028274;28;20021;-69
2022/10/20 00:39:51;;;;;;;19.73;11.40;;;;;;;;;;5043376;28;20040;-69
2022/10/20 00:42:18;;;;;;;26.25;11.88;;;;;;;;;;5048203;28;20119;-69
2022/10/20 00:44:47;;;;;;;18.08;11.05;;;;;;;;;;5052227;28;20040;-69
2022/10/20 00:47:15;;;;;;;19.92;12.02;;;;;;;;;;5046674;28;20451;-69
2022/10/20 00:49:42;;;;;;;24.30;11.65;;;;;;;;;;5048319;28;20039;-69
2022/10/20 00:52:09;;;;;;;24.95;12.38;;;;;;;;;;5046335;28;20036;-69
2022/10/20 00:54:35;;;;;;;27.02;12.30;;;;;;;;;;5045911;28;20112;-69
2022/10/20 00:57:02;;;;;;;18.67;12.05;;;;;;;;;;5048674;28;21648;-69
2022/10/20 00:59:32;;;;;;;27.00;13.27;;;;;;;;;;5046723;28;20037;-69
2022/10/20 01:01:58;;;;;;;19.38;11.98;;;;;;;;;;5051289;28;20187;-69
2022/10/20 01:04:25;;;;;;;25.58;12.48;;;;;;;;;;5049207;28;20029;-69
2022/10/20 01:06:51;;;;;;;18.63;12.57;;;;;;;;;;5048928;28;20036;-69
2022/10/20 01:09:17;;;;;;;19.27;12.65;;;;;;;;;;5031728;28;20059;-69
2022/10/20 01:11:49;;;;;;;21.15;12.52;;;;;;;;;;5050648;28;20052;-70
2022/10/20 01:14:18;;;;;;;20.80;12.63;;;;;;;;;;5044454;28;20079;-69
2022/10/20 01:16:50;;;;;;;21.20;12.88;;;;;;;;;;5048288;28;20056;-68
2022/10/20 01:19:35;;;;;;;21.92;12.38;;;;;;;;;;5047556;28;20025;-69
2022/10/20 01:22:13;;;;;;;28.23;12.95;;;;;;;;;;5031126;28;21009;-69
2022/10/20 01:25:09;;;;;;;24.48;13.55;;;;;;;;;;5047177;28;20373;-69
2022/10/20 01:27:45;;;;;;;21.08;13.80;;;;;;;;;;4960381;28;20069;-69
2022/10/20 01:30:18;;;;;;;23.23;13.73;;;;;;;;;;5042214;28;20027;-69
2022/10/20 01:32:50;;;;;;;30.02;13.38;;;;;;;;;;5046154;28;20074;-69
2022/10/20 01:35:22;;;;;;;26.35;14.50;;;;;;;;;;5048348;28;20494;-68
2022/10/20 01:37:48;;;;;;;27.92;14.98;;;;;;;;;;5046840;28;20029;-69
2022/10/20 01:40:23;;;;;;;22.48;13.73;;;;;;;;;;5045282;28;20045;-69
2022/10/20 01:42:49;;;;;;;31.83;14.60;;;;;;;;;;5047808;28;20720;-69
2022/10/20 01:45:17;;;;;;;31.27;14.95;;;;;;;;;;5046441;28;20032;-69
2022/10/20 01:47:44;;;;;;;26.83;15.13;;;;;;;;;;5046206;28;20043;-69
2022/10/20 01:50:12;;;;;;;23.48;15.40;;;;;;;;;;5047914;28;20506;-68
2022/10/20 01:52:38;;;;;;;21.77;15.15;;;;;;;;;;5044154;28;20392;-69
2022/10/20 01:55:14;;;;;;;31.27;15.35;;;;;;;;;;5045684;28;21568;-69
2022/10/20 01:57:43;;;;;;;31.80;15.45;;;;;;;;;;5047367;28;20099;-69
2022/10/20 02:00:09;;;;;;;24.88;14.00;;;;;;;;;;5047056;28;20091;-69
2022/10/20 02:02:55;;;;;;;29.88;15.65;;;;;;;;;;5045618;28;20115;-68
2022/10/20 02:05:36;;;;;;;29.95;15.63;;;;;;;;;;5042321;28;20036;-69
2022/10/20 02:08:05;;;;;;;28.13;16.38;;;;;;;;;;5045877;28;20052;-69
2022/10/20 02:10:35;;;;;;;28.23;16.65;;;;;;;;;;5044699;28;20031;-69
2022/10/20 02:13:04;;;;;;;30.15;16.20;;;;;;;;;;5045492;28;20040;-69
2022/10/20 02:15:31;;;;;;;33.88;16.27;;;;;;;;;;5044281;28;20017;-69
2022/10/20 02:17:59;;;;;;;32.80;16.10;;;;;;;;;;5045509;28;20142;-69
2022/10/20 02:20:27;;;;;;;25.75;16.00;;;;;;;;;;5044331;28;20040;-69
2022/10/20 02:22:53;;;;;;;33.80;17.25;;;;;;;;;;5045153;28;20110;-69
2022/10/20 02:25:19;;;;;;;30.58;17.48;;;;;;;;;;5027624;28;20468;-68
2022/10/20 02:27:47;;;;;;;28.20;16.30;;;;;;;;;;5046825;28;20319;-69
2022/10/20 02:30:16;;;;;;;29.50;17.42;;;;;;;;;;5047173;28;20036;-69
2022/10/20 02:32:43;;;;;;;28.15;16.08;;;;;;;;;;5044397;28;20033;-69
2022/10/20 02:35:14;;;;;;;29.67;17.65;;;;;;;;;;5046654;28;20025;-69
2022/10/20 02:37:40;;;;;;;35.22;17.33;;;;;;;;;;5044039;28;20062;-68
2022/10/20 02:40:07;;;;;;;29.55;17.05;;;;;;;;;;5036008;28;20032;-68
2022/10/20 02:42:33;;;;;;;31.30;18.38;;;;;;;;;;5010479;28;20036;-68
2022/10/20 02:44:59;;;;;;;31.02;17.23;;;;;;;;;;5048354;28;20036;-69
2022/10/20 02:47:25;;;;;;;31.08;17.67;;;;;;;;;;5044065;28;20040;-68
2022/10/20 02:49:51;;;;;;;32.92;18.73;;;;;;;;;;5027965;28;20519;-68
2022/10/20 02:52:17;;;;;;;28.80;18.73;;;;;;;;;;5028582;28;20070;-68
2022/10/20 02:54:43;;;;;;;28.27;18.00;;;;;;;;;;5028848;28;20025;-69
2022/10/20 02:57:09;;;;;;;35.40;18.67;;;;;;;;;;5025934;28;20017;-68
2022/10/20 02:59:35;;;;;;;35.05;19.27;;;;;;;;;;5029656;28;20037;-68
2022/10/20 03:02:01;;;;;;;34.22;19.98;;;;;;;;;;5043994;28;20029;-68
2022/10/20 03:04:27;;;;;;;35.25;19.10;;;;;;;;;;5044995;28;20099;-68
2022/10/20 03:06:53;;;;;;;33.40;19.52;;;;;;;;;;5029694;28;20057;-68
2022/10/20 03:09:19;;;;;;;33.38;19.70;;;;;;;;;;5043236;28;20033;-68
2022/10/20 03:11:45;;;;;;;30.48;18.98;;;;;;;;;;5029098;28;20463;-68
2022/10/20 03:14:11;;;;;;;33.22;19.45;;;;;;;;;;5044123;28;20044;-69
2022/10/20 03:16:38;;;;;;;33.95;20.52;;;;;;;;;;5045611;28;20207;-68
2022/10/20 03:19:04;;;;;;;32.78;19.35;;;;;;;;;;5044747;28;20025;-68
2022/10/20 03:21:31;;;;;;;33.40;19.90;;;;;;;;;;5026281;28;20562;-68
2022/10/20 03:23:57;;;;;;;37.00;20.92;;;;;;;;;;5038326;28;20453;-70
2022/10/20 03:26:23;;;;;;;36.88;20.83;;;;;;;;;;5048219;28;20111;-67
2022/10/20 03:28:49;;;;;;;35.85;21.30;;;;;;;;;;5044772;28;20128;-67
2022/10/20 03:31:15;;;;;;;39.70;22.58;;;;;;;;;;5046284;28;20068;-68
2022/10/20 03:33:41;;;;;;;36.78;21.83;;;;;;;;;;5041252;28;20021;-68
2022/10/20 03:36:07;;;;;;;36.65;20.65;;;;;;;;;;5027630;28;20405;-70
2022/10/20 03:38:33;;;;;;;39.55;22.00;;;;;;;;;;5025698;28;20037;-67
2022/10/20 03:40:59;;;;;;;39.42;21.40;;;;;;;;;;5046996;28;20048;-67
2022/10/20 03:43:25;;;;;;;36.50;21.17;;;;;;;;;;5046218;28;20487;-67
2022/10/20 03:46:00;;;;;;;35.03;21.42;;;;;;;;;;5026588;28;20037;-68
2022/10/20 03:48:26;;;;;;;33.05;20.55;;;;;;;;;;5044287;28;20021;-67
2022/10/20 03:50:52;;;;;;;37.67;22.10;;;;;;;;;;5044207;28;20041;-68
2022/10/20 03:53:18;;;;;;;37.33;21.40;;;;;;;;;;5043134;28;20559;-68
2022/10/20 03:55:44;;;;;;;35.78;21.10;;;;;;;;;;5047297;28;20025;-68
2022/10/20 03:58:10;;;;;;;33.90;19.67;;;;;;;;;;5044755;28;20477;-68
2022/10/20 04:00:36;;;;;;;33.92;20.30;;;;;;;;;;5046491;28;20067;-68
2022/10/20 04:03:02;;;;;;;38.53;20.48;;;;;;;;;;5044130;28;20506;-68
2022/10/20 04:05:28;;;;;;;39.38;22.35;;;;;;;;;;5027582;28;20032;-69
2022/10/20 04:07:54;;;;;;;34.78;21.48;;;;;;;;;;5030425;28;20032;-68
2022/10/20 04:10:20;;;;;;;37.75;21.13;;;;;;;;;;5035818;28;20063;-68
2022/10/20 04:12:46;;;;;;;34.38;22.30;;;;;;;;;;5046046;28;20079;-69
2022/10/20 04:15:12;;;;;;;36.40;20.90;;;;;;;;;;5046277;28;20549;-68
2022/10/20 04:17:38;;;;;;;38.25;21.15;;;;;;;;;;5048561;28;20021;-68
2022/10/20 04:20:05;;;;;;;35.38;21.48;;;;;;;;;;5030399;28;20047;-70
2022/10/20 04:22:31;;;;;;;30.40;21.08;;;;;;;;;;5032894;28;20025;-69
2022/10/20 04:24:57;;;;;;;36.20;21.10;;;;;;;;;;5030660;28;20029;-69
2022/10/20 04:27:23;;;;;;;34.38;19.85;;;;;;;;;;5045824;28;20108;-70
2022/10/20 04:29:49;;;;;;;33.60;19.38;;;;;;;;;;5049828;28;20587;-69
2022/10/20 04:32:15;;;;;;;38.45;19.98;;;;;;;;;;5050689;28;20029;-70
2022/10/20 04:34:41;;;;;;;31.10;20.50;;;;;;;;;;5045999;28;20188;-70
2022/10/20 04:37:07;;;;;;;34.03;20.33;;;;;;;;;;5048924;28;20486;-67
2022/10/20 04:39:33;;;;;;;36.60;21.00;;;;;;;;;;5050334;28;20025;-68
2022/10/20 04:41:59;;;;;;;31.15;19.80;;;;;;;;;;5052235;28;20048;-67
2022/10/20 04:44:25;;;;;;;41.42;20.15;;;;;;;;;;5029729;28;20054;-68
2022/10/20 04:46:53;;;;;;;32.70;20.23;;;;;;;;;;5047676;28;20025;-70
2022/10/20 04:49:19;;;;;;;33.40;19.20;;;;;;;;;;5046063;28;20031;-68
2022/10/20 04:51:45;;;;;;;33.75;19.45;;;;;;;;;;5048433;28;20376;-70
2022/10/20 04:54:11;;;;;;;34.60;20.13;;;;;;;;;;5028205;28;20029;-70
2022/10/20 04:56:37;;;;;;;34.53;20.40;;;;;;;;;;5052138;28;20036;-69
2022/10/20 04:59:03;;;;;;;42.65;19.80;;;;;;;;;;5046351;28;20510;-69
2022/10/20 05:01:30;;;;;;;36.13;20.90;;;;;;;;;;5048678;28;20025;-67
2022/10/20 05:03:56;;;;;;;70.18;24.60;;;;;;;;;;5045261;28;20040;-68
2022/10/20 05:06:26;;;;;;;35.15;20.30;;;;;;;;;;5028853;28;20491;-68
2022/10/20 05:08:53;;;;;;;30.90;19.58;;;;;;;;;;5044022;28;20025;-70
2022/10/20 05:11:21;;;;;;;36.90;20.05;;;;;;;;;;5027872;28;20028;-69
2022/10/20 05:13:47;;;;;;;55.13;21.30;;;;;;;;;;5029117;28;20059;-70
2022/10/20 05:16:13;;;;;;;44.15;21.83;;;;;;;;;;5027034;28;20071;-69
2022/10/20 05:18:39;;;;;;;31.63;20.48;;;;;;;;;;5047636;28;20029;-69
2022/10/20 05:21:07;;;;;;;35.42;21.67;;;;;;;;;;5045043;28;20052;-68
2022/10/20 05:23:33;;;;;;;33.83;19.80;;;;;;;;;;5045533;28;20141;-68
2022/10/20 05:26:01;;;;;;;32.78;21.35;;;;;;;;;;5011180;28;20029;-67
2022/10/20 05:28:27;;;;;;;40.28;22.40;;;;;;;;;;5045796;28;20031;-68
2022/10/20 05:30:53;;;;;;;35.80;21.20;;;;;;;;;;5046266;28;20033;-68
2022/10/20 05:33:19;;;;;;;34.00;20.90;;;;;;;;;;5048218;28;20051;-68
2022/10/20 05:35:45;;;;;;;33.88;20.60;;;;;;;;;;5047168;28;20490;-68
2022/10/20 05:38:11;;;;;;;39.70;21.92;;;;;;;;;;5028957;28;20127;-68
2022/10/20 05:40:37;;;;;;;34.97;21.25;;;;;;;;;;5048413;28;20132;-68
2022/10/20 05:43:03;;;;;;;45.13;20.42;;;;;;;;;;5028502;28;20033;-68
2022/10/20 05:45:29;;;;;;;37.80;23.20;;;;;;;;;;5046408;28;21769;-69
2022/10/20 05:47:55;;;;;;;31.92;20.92;;;;;;;;;;5047868;28;20024;-68
2022/10/20 05:50:21;;;;;;;34.67;20.58;;;;;;;;;;5046986;28;20507;-68
2022/10/20 05:52:47;;;;;;;34.75;21.02;;;;;;;;;;5046563;28;20025;-68
2022/10/20 05:55:13;;;;;;;40.92;22.73;;;;;;;;;;5048286;28;20051;-68
2022/10/20 05:57:39;;;;;;;34.13;21.67;;;;;;;;;;5048152;28;20130;-68
2022/10/20 06:00:06;;;;;;;35.47;21.55;;;;;;;;;;5043928;28;20460;-68
2022/10/20 06:02:32;;;;;;;35.30;22.33;;;;;;;;;;5044159;28;20546;-68
2022/10/20 06:04:58;;;;;;;33.80;20.83;;;;;;;;;;5044820;28;20495;-68
2022/10/20 06:07:25;;;;;;;35.28;21.83;;;;;;;;;;5044973;28;20037;-68
2022/10/20 06:09:51;;;;;;;43.53;22.70;;;;;;;;;;5045400;28;20731;-68
2022/10/20 06:12:17;;;;;;;43.08;22.67;;;;;;;;;;5026362;28;20021;-68
2022/10/20 06:14:43;;;;;;;41.25;26.70;;;;;;;;;;5046011;28;20036;-68
2022/10/20 06:17:09;;;;;;;50.95;24.63;;;;;;;;;;5029727;28;20128;-68
2022/10/20 06:19:35;;;;;;;33.58;22.42;;;;;;;;;;5028031;28;20021;-68
2022/10/20 06:22:01;;;;;;;38.22;24.50;;;;;;;;;;5057055;28;20456;-68
2022/10/20 06:24:27;;;;;;;37.05;23.10;;;;;;;;;;5049217;28;20029;-69
2022/10/20 06:26:54;;;;;;;32.95;21.45;;;;;;;;;;5041001;28;20380;-68
2022/10/20 06:29:20;;;;;;;33.42;21.60;;;;;;;;;;5055358;28;20051;-68
2022/10/20 06:31:48;;;;;;;33.72;22.17;;;;;;;;;;5056643;28;20037;-68
2022/10/20 06:34:18;;;;;;;34.75;21.52;;;;;;;;;;5044530;28;20035;-68
2022/10/20 06:36:45;;;;;;;39.13;21.83;;;;;;;;;;5051480;28;20025;-68
2022/10/20 06:39:12;;;;;;;34.15;19.70;;;;;;;;;;5046713;28;20051;-67
2022/10/20 06:41:38;;;;;;;37.63;22.20;;;;;;;;;;5046738;28;20056;-68
2022/10/20 06:44:06;;;;;;;31.10;19.42;;;;;;;;;;5066435;28;20176;-68
2022/10/20 06:46:34;;;;;;;28.23;18.77;;;;;;;;;;5069531;28;20012;-68
2022/10/20 06:49:00;;;;;;;36.20;19.27;;;;;;;;;;5064407;28;20105;-69
2022/10/20 06:51:26;;;;;;;31.00;19.25;;;;;;;;;;5065490;28;20040;-69
2022/10/20 06:53:52;;;;;;;30.25;19.23;;;;;;;;;;5062575;28;20077;-72
2022/10/20 06:56:27;;;;;;;36.28;19.30;;;;;;;;;;5068396;28;20058;-68
2022/10/20 06:58:54;;;;;;;30.55;18.60;;;;;;;;;;5065193;28;20395;-68
2022/10/20 07:01:24;;;;;;;33.00;18.80;;;;;;;;;;5066778;28;20029;-68
2022/10/20 07:03:52;;;;;;;39.95;19.23;;;;;;;;;;5067177;28;20513;-68
2022/10/20 07:06:20;;;;;;;26.95;18.25;;;;;;;;;;5065804;28;20023;-68
2022/10/20 07:08:47;;;;;;;30.70;19.92;;;;;;;;;;5065748;28;20031;-68
2022/10/20 07:11:14;;;;;;;33.85;18.10;;;;;;;;;;5064372;28;20044;-68
2022/10/20 07:13:41;;;;;;;28.05;17.50;;;;;;;;;;5066184;28;20039;-68
2022/10/20 07:16:07;;;;;;;29.67;18.75;;;;;;;;;;5063497;28;20035;-68
2022/10/20 07:18:35;;;;;;;30.13;17.25;;;;;;;;;;5082880;28;20033;-68
2022/10/20 07:21:05;;;;;;;30.20;17.40;;;;;;;;;;5064531;28;20041;-68
2022/10/20 07:23:32;;;;;;;28.02;17.30;;;;;;;;;;5063199;28;20028;-68
2022/10/20 07:26:02;;;;;;;30.75;17.40;;;;;;;;;;5068224;28;20032;-68
2022/10/20 07:28:28;;;;;;;28.85;16.83;;;;;;;;;;5067374;28;20375;-68
2022/10/20 07:30:54;;;;;;;26.92;17.17;;;;;;;;;;5066131;28;20028;-68
2022/10/20 07:33:21;;;;;;;29.65;17.60;;;;;;;;;;5082283;28;20462;-68
2022/10/20 07:35:48;;;;;;;31.58;17.90;;;;;;;;;;5064606;28;20363;-68
2022/10/20 07:38:13;;;;;;;27.20;16.67;;;;;;;;;;5081583;28;20062;-69
2022/10/20 07:40:39;;;;;;;31.83;17.50;;;;;;;;;;5066419;28;20072;-67
2022/10/20 07:43:05;;;;;;;25.63;16.92;;;;;;;;;;5056975;28;20029;-68
2022/10/20 07:45:32;;;;;;;25.80;17.13;;;;;;;;;;5063625;28;20037;-68
2022/10/20 07:47:58;;;;;;;25.58;17.02;;;;;;;;;;5052173;28;20114;-68
2022/10/20 07:50:24;;;;;;;25.35;16.63;;;;;;;;;;5046731;28;20511;-68
2022/10/20 07:52:53;;;;;;;23.83;16.08;;;;;;;;;;5031289;28;20116;-67
2022/10/20 07:55:20;;;;;;;28.42;16.38;;;;;;;;;;5030755;28;20025;-67
2022/10/20 07:57:46;;;;;;;26.15;16.17;;;;;;;;;;5049276;28;20098;-68
2022/10/20 08:00:12;;;;;;;31.17;16.05;;;;;;;;;;5051125;28;20035;-68
2022/10/20 08:02:42;;;;;;;27.02;17.52;;;;;;;;;;5048664;28;20476;-68
2022/10/20 08:05:08;;;;;;;22.30;16.55;;;;;;;;;;5047408;28;20033;-68
2022/10/20 08:07:34;;;;;;;26.40;15.55;;;;;;;;;;5049470;28;20037;-68
2022/10/20 08:10:00;;;;;;;22.92;16.15;;;;;;;;;;5047325;28;20032;-68
2022/10/20 08:12:26;;;;;;;23.58;16.05;;;;;;;;;;5047936;28;20025;-68
2022/10/20 08:14:52;;;;;;;24.58;16.42;;;;;;;;;;5056080;28;20459;-68
2022/10/20 08:17:18;;;;;;;25.73;16.65;;;;;;;;;;5071850;28;20025;-68
2022/10/20 08:19:44;;;;;;;21.73;15.70;;;;;;;;;;5043329;28;20021;-68
2022/10/20 08:22:11;;;;;;;30.50;16.48;;;;;;;;;;5050560;28;20047;-68
2022/10/20 08:24:37;;;;;;;25.92;16.48;;;;;;;;;;5050286;28;20476;-68
2022/10/20 08:27:03;;;;;;;27.88;15.38;;;;;;;;;;5049482;28;20036;-68
2022/10/20 08:29:29;;;;;;;37.88;16.45;;;;;;;;;;5031840;28;20021;-68
2022/10/20 08:31:55;;;;;;;26.63;16.15;;;;;;;;;;5051024;28;20037;-68
2022/10/20 08:34:21;;;;;;;35.10;15.60;;;;;;;;;;5030176;28;20061;-68
2022/10/20 08:36:47;;;;;;;28.23;15.38;;;;;;;;;;5051674;28;20056;-68
2022/10/20 08:39:13;;;;;;;23.05;15.20;;;;;;;;;;5045846;28;20472;-68
2022/10/20 08:41:42;;;;;;;26.02;15.30;;;;;;;;;;5047976;28;20097;-67
2022/10/20 08:44:12;;;;;;;24.98;15.27;;;;;;;;;;5046616;28;20107;-68
2022/10/20 08:46:40;;;;;;;26.90;15.48;;;;;;;;;;5046499;28;20029;-67
2022/10/20 08:49:10;;;;;;;26.85;15.65;;;;;;;;;;5048177;28;20391;-69
2022/10/20 08:51:37;;;;;;;23.95;15.63;;;;;;;;;;5047320;28;20036;-68
2022/10/20 08:54:04;;;;;;;23.13;15.63;;;;;;;;;;5031980;28;20037;-69
2022/10/20 08:56:30;;;;;;;24.08;15.20;;;;;;;;;;5047147;28;20021;-69
2022/10/20 08:58:57;;;;;;;29.17;15.15;;;;;;;;;;5046576;28;20442;-69
2022/10/20 09:01:24;;;;;;;26.60;15.88;;;;;;;;;;5050273;28;20040;-69
2022/10/20 09:04:14;;;;;;;28.02;16.25;;;;;;;;;;5046374;28;20037;-69
2022/10/20 09:06:42;;;;;;;22.35;14.48;;;;;;;;;;5023936;28;20037;-69
2022/10/20 09:09:13;;;;;;;31.02;15.48;;;;;;;;;;5047029;28;20037;-69
2022/10/20 09:11:39;;;;;;;32.83;18.55;;;;;;;;;;5047279;28;20086;-68
2022/10/20 09:14:08;;;;;;;28.60;15.40;;;;;;;;;;5050669;28;20031;-68
2022/10/20 09:16:37;;;;;;;27.48;15.55;;;;;;;;;;5044861;28;20036;-68
2022/10/20 09:19:05;;;;;;;29.30;16.25;;;;;;;;;;5048583;28;20025;-68
2022/10/20 09:21:32;;;;;;;27.30;16.40;;;;;;;;;;5051652;28;20032;-68
2022/10/20 09:24:03;;;;;;;27.00;16.02;;;;;;;;;;5030207;28;20028;-68
2022/10/20 09:26:40;;;;;;;24.48;17.13;;;;;;;;;;5049234;28;20129;-68
2022/10/20 09:29:10;;;;;;;34.20;19.35;;;;;;;;;;5038990;28;20033;-68
2022/10/20 09:31:39;;;;;;;28.85;17.75;;;;;;;;;;5049879;28;20372;-68
2022/10/20 09:34:22;;;;;;;28.67;17.60;;;;;;;;;;5051844;28;20449;-69
2022/10/20 09:36:49;;;;;;;26.10;16.33;;;;;;;;;;5051072;28;20044;-68
2022/10/20 09:39:20;;;;;;;27.10;17.77;;;;;;;;;;5058181;28;20025;-68
2022/10/20 09:41:46;;;;;;;43.75;23.33;;;;;;;;;;5062757;28;20063;-68
2022/10/20 09:44:22;;;;;;;25.60;18.10;;;;;;;;;;5049868;28;20073;-68
2022/10/20 09:46:50;;;;;;;29.60;17.45;;;;;;;;;;5048843;28;20436;-69
2022/10/20 09:49:22;;;;;;;26.90;17.40;;;;;;;;;;5051451;28;20399;-69
2022/10/20 09:51:48;;;;;;;28.65;17.88;;;;;;;;;;5065741;28;20032;-68
2022/10/20 09:54:16;;;;;;;32.58;17.20;;;;;;;;;;5039191;28;20070;-68
2022/10/20 09:56:45;;;;;;;28.23;17.30;;;;;;;;;;5057723;28;20115;-69
2022/10/20 09:59:33;;;;;;;25.40;17.05;;;;;;;;;;5046547;28;20033;-68
2022/10/20 10:02:00;;;;;;;39.25;17.77;;;;;;;;;;5053869;28;20424;-68
2022/10/20 10:04:39;;;;;;;23.05;16.67;;;;;;;;;;5049519;28;20025;-69
2022/10/20 10:07:25;;;;;;;28.38;16.95;;;;;;;;;;5049628;28;20029;-68
2022/10/20 10:09:57;;;;;;;26.73;17.08;;;;;;;;;;5052351;28;20095;-68
2022/10/20 10:12:24;;;;;;;27.38;17.42;;;;;;;;;;5048630;28;20044;-68
2022/10/20 10:14:54;;;;;;;30.88;17.88;;;;;;;;;;5035371;28;20035;-68
2022/10/20 10:17:32;;;;;;;30.02;17.35;;;;;;;;;;5045408;28;20078;-69
2022/10/20 10:19:59;;;;;;;33.20;19.65;;;;;;;;;;5048921;28;20083;-68
2022/10/20 10:22:25;;;;;;;34.13;18.80;;;;;;;;;;5049542;28;20055;-68
2022/10/20 10:24:54;;;;;;;39.65;19.85;;;;;;;;;;5049505;28;20032;-69
2022/10/20 10:27:23;;;;;;;35.80;19.00;;;;;;;;;;5033224;28;20079;-67
2022/10/20 10:29:49;;;;;;;28.92;18.88;;;;;;;;;;5029953;28;20025;-67
2022/10/20 10:32:17;;;;;;;32.55;18.20;;;;;;;;;;5015320;28;20052;-68
2022/10/20 10:34:47;;;;;;;34.10;19.77;;;;;;;;;;5045308;28;20024;-67
2022/10/20 10:37:15;;;;;;;31.92;19.83;;;;;;;;;;5046164;28;20087;-67
2022/10/20 10:39:43;;;;;;;27.38;19.90;;;;;;;;;;5056158;28;20017;-67
2022/10/20 10:42:20;;;;;;;33.13;19.48;;;;;;;;;;5059545;28;20071;-67
2022/10/20 10:45:02;;;;;;;30.17;20.75;;;;;;;;;;5048920;28;20123;-69
2022/10/20 10:47:28;;;;;;;32.92;20.98;;;;;;;;;;5066008;28;20556;-69
2022/10/20 10:50:12;;;;;;;29.23;21.35;;;;;;;;;;5065997;28;20056;-67
2022/10/20 10:52:48;;;;;;;32.95;21.77;;;;;;;;;;5062868;28;20025;-67
2022/10/20 10:55:23;;;;;;;38.05;22.95;;;;;;;;;;5062863;28;20056;-67
2022/10/20 10:57:57;;;;;;;30.27;22.67;;;;;;;;;;5067950;28;20050;-67
2022/10/20 11:00:41;;;;;;;30.42;22.10;;;;;;;;;;5061740;28;20036;-68
2022/10/20 11:03:18;;;;;;;36.83;23.55;;;;;;;;;;5062750;28;20033;-67
2022/10/20 11:06:03;;;;;;;42.38;23.02;;;;;;;;;;5071040;28;20024;-68
2022/10/20 11:08:31;;;;;;;34.22;23.08;;;;;;;;;;5066087;28;20028;-68
2022/10/20 11:11:04;;;;;;;39.55;23.38;;;;;;;;;;5063632;28;20067;-68
2022/10/20 11:13:39;;;;;;;50.88;25.27;;;;;;;;;;5067726;28;20016;-68
2022/10/20 11:16:20;;;;;;;70.35;24.63;;;;;;;;;;5072510;28;20033;-68
2022/10/20 11:18:55;;;;;;;43.28;23.33;;;;;;;;;;5075648;28;20052;-68
2022/10/20 11:21:24;;;;;;;43.95;25.90;;;;;;;;;;5069111;28;20029;-69
2022/10/20 11:23:53;;;;;;;52.35;26.15;;;;;;;;;;5065029;28;20021;-67
2022/10/20 11:26:22;;;;;;;50.45;24.52;;;;;;;;;;5053119;28;20021;-69
2022/10/20 11:28:50;;;;;;;53.70;27.50;;;;;;;;;;5059920;28;20032;-69
2022/10/20 11:31:35;;;;;;;52.58;28.33;;;;;;;;;;5049855;28;20028;-69
2022/10/20 11:34:04;;;;;;;47.70;26.52;;;;;;;;;;5068897;28;20457;-69
2022/10/20 11:36:37;;;;;;;160.02;36.70;;;;;;;;;;5066747;28;20103;-68
2022/10/20 11:39:05;;;;;;;55.28;33.20;;;;;;;;;;5069063;28;20098;-69
2022/10/20 11:41:45;;;;;;;89.20;32.50;;;;;;;;;;5059197;28;20049;-69
2022/10/20 11:44:17;;;;;;;59.13;31.05;;;;;;;;;;5030018;28;20041;-69
2022/10/20 11:46:47;;;;;;;52.40;31.42;;;;;;;;;;5047072;28;20554;-69
2022/10/20 11:49:13;;;;;;;80.57;32.22;;;;;;;;;;5038142;28;20028;-71
2022/10/20 11:51:47;;;;;;;69.93;33.13;;;;;;;;;;5049125;28;20087;-70
2022/10/20 11:54:32;;;;;;;102.78;37.92;;;;;;;;;;5047961;28;20503;-69
2022/10/20 11:57:16;;;;;;;82.07;35.50;;;;;;;;;;5048788;28;20502;-70
2022/10/20 12:00:00;;;;;;;89.82;32.72;;;;;;;;;;5032047;28;20020;-70
2022/10/20 12:02:41;;;;;;;106.78;34.55;;;;;;;;;;5034078;28;20032;-70
2022/10/20 12:05:29;;;;;;;54.63;34.45;;;;;;;;;;5047698;28;20496;-70
2022/10/20 12:08:18;;;;;;;51.97;31.88;;;;;;;;;;5049904;28;20651;-71
2022/10/20 12:11:05;;;;;;;50.60;32.17;;;;;;;;;;5059087;28;20133;-70
2022/10/20 12:13:40;;;;;;;53.47;32.13;;;;;;;;;;5051902;28;20259;-70
2022/10/20 12:16:06;;;;;;;52.90;32.72;;;;;;;;;;5054787;28;20033;-70
2022/10/20 12:18:33;;;;;;;61.65;33.78;;;;;;;;;;5034152;28;20044;-70
2022/10/20 12:21:04;;;;;;;53.38;32.92;;;;;;;;;;5062514;28;20021;-70
2022/10/20 12:23:45;;;;;;;54.60;33.65;;;;;;;;;;5046569;28;20052;-70
2022/10/20 12:26:10;;;;;;;;;;;;;;;;;;5039750;28;20605;-70
2022/10/20 12:28:41;;;;;;;49.65;31.23;;;;;;;;;;5047340;28;19917;-70
2022/10/20 12:31:07;;;;;;;50.08;32.88;;;;;;;;;;5050772;28;20029;-70
2022/10/20 12:33:35;;;;;;;48.08;30.38;;;;;;;;;;5017973;28;20053;-70
2022/10/20 12:36:16;;;;;;;46.45;31.30;;;;;;;;;;5047278;28;20024;-70
2022/10/20 12:38:43;;;;;;;48.53;29.00;;;;;;;;;;5040396;28;20112;-70
2022/10/20 12:41:12;;;;;;;51.90;31.55;;;;;;;;;;5047772;28;20496;-70
2022/10/20 12:43:54;;;;;;;54.47;31.70;;;;;;;;;;5045131;28;21327;-70
2022/10/20 12:46:29;;;;;;;50.95;31.17;;;;;;;;;;5047083;28;20484;-70
2022/10/20 12:48:58;;;;;;;55.97;32.47;;;;;;;;;;5045530;28;20484;-70
2022/10/20 12:51:35;;;;;;;47.47;29.88;;;;;;;;;;5049260;28;20471;-70
2022/10/20 12:54:03;;;;;;;57.88;32.88;;;;;;;;;;5046297;28;20087;-71
2022/10/20 12:56:33;;;;;;;49.70;31.48;;;;;;;;;;5046076;28;20028;-71
2022/10/20 12:59:17;;;;;;;55.95;32.35;;;;;;;;;;5045310;28;20021;-71
2022/10/20 13:02:01;;;;;;;49.45;31.95;;;;;;;;;;5053072;28;20501;-71
2022/10/20 13:04:46;;;;;;;54.03;33.90;;;;;;;;;;5047371;28;20039;-70
2022/10/20 13:07:12;;;;;;;51.65;32.03;;;;;;;;;;5049024;28;20494;-71
2022/10/20 13:09:54;;;;;;;49.20;32.65;;;;;;;;;;5031551;28;20052;-70
2022/10/20 13:12:25;;;;;;;44.33;30.80;;;;;;;;;;5043025;28;20113;-71
2022/10/20 13:14:53;;;;;;;45.95;29.85;;;;;;;;;;5047378;28;20020;-71
2022/10/20 13:17:29;;;;;;;45.42;29.45;;;;;;;;;;5045802;28;20048;-70
2022/10/20 13:19:59;;;;;;;45.63;29.83;;;;;;;;;;5045824;28;20070;-71
2022/10/20 13:22:34;;;;;;;42.95;28.52;;;;;;;;;;5046701;28;20116;-71
2022/10/20 13:25:02;;;;;;;37.90;26.63;;;;;;;;;;5044768;28;20024;-70
2022/10/20 13:27:28;;;;;;;47.63;27.20;;;;;;;;;;5051476;28;20363;-70
2022/10/20 13:29:54;;;;;;;45.08;28.20;;;;;;;;;;5045535;28;20494;-70
2022/10/20 13:32:40;;;;;;;42.20;27.92;;;;;;;;;;5031499;28;20155;-70
2022/10/20 13:35:17;;;;;;;38.05;27.83;;;;;;;;;;5046890;28;20142;-70
2022/10/20 13:37:43;;;;;;;43.78;27.52;;;;;;;;;;5044320;28;20045;-70
2022/10/20 13:40:09;;;;;;;40.33;27.05;;;;;;;;;;5033530;28;20067;-70
2022/10/20 13:42:54;;;;;;;39.03;27.10;;;;;;;;;;5057131;28;20141;-70
2022/10/20 13:45:20;;;;;;;40.20;28.52;;;;;;;;;;5067220;28;20103;-70
2022/10/20 13:47:46;;;;;;;37.95;27.25;;;;;;;;;;5067673;28;20037;-70
2022/10/20 13:50:12;;;;;;;42.95;29.30;;;;;;;;;;5069675;28;20082;-70
2022/10/20 13:52:45;;;;;;;42.33;27.40;;;;;;;;;;5066343;28;20562;-70
2022/10/20 13:55:30;;;;;;;48.33;29.50;;;;;;;;;;5065735;28;20147;-70
2022/10/20 13:57:59;;;;;;;42.97;28.92;;;;;;;;;;5068916;28;20054;-70
2022/10/20 14:00:26;;;;;;;46.25;29.85;;;;;;;;;;5070090;28;20040;-70
2022/10/20 14:02:54;;;;;;;42.00;30.70;;;;;;;;;;5069219;28;20081;-70
2022/10/20 14:05:21;;;;;;;47.15;29.55;;;;;;;;;;5072247;28;20077;-71
2022/10/20 14:07:49;;;;;;;46.13;30.30;;;;;;;;;;5067068;28;20481;-70
2022/10/20 14:10:31;;;;;;;53.38;32.05;;;;;;;;;;5068296;28;20040;-71
2022/10/20 14:12:57;;;;;;;53.30;31.15;;;;;;;;;;5059854;28;20349;-70
2022/10/20 14:15:28;;;;;;;44.08;30.85;;;;;;;;;;5067605;28;20103;-70
2022/10/20 14:18:02;;;;;;;47.28;31.23;;;;;;;;;;5067061;28;20135;-72
2022/10/20 14:20:29;;;;;;;43.60;29.23;;;;;;;;;;5067474;28;20024;-70
2022/10/20 14:22:57;;;;;;;38.38;27.85;;;;;;;;;;5067933;28;20035;-71
2022/10/20 14:25:23;;;;;;;41.55;29.00;;;;;;;;;;5068761;28;20032;-71
2022/10/20 14:27:50;;;;;;;47.42;31.02;;;;;;;;;;5066212;28;20612;-69